Time;durP1;ratioP1;P1;durP2;ratioP2;P2;SDS_P1;SDS_P2;PMS_P1;PMS_P2;Temp;Humidity;BMP_temperature;BMP_pressure;BME280_temperature;BME280_humidity;BME280_pressure;Samples;Min_cycle;Max_cycle;Signal;HPM_P1;HPM_P2
2021/09/08 00:00:26;;;;;;;21.47;16.60;;;;;;;14.13;87.95;96629.69;5087177;28;20025;-79
2021/09/08 00:03:07;;;;;;;16.20;13.77;;;;;;;14.11;88.32;96622.91;5087237;28;20044;-78
2021/09/08 00:05:34;;;;;;;17.57;13.00;;;;;;;14.14;87.92;96626.03;5086331;28;20570;-79
2021/09/08 00:08:00;;;;;;;16.17;12.67;;;;;;;14.08;87.84;96618.81;5083540;28;20036;-79
2021/09/08 00:10:26;;;;;;;15.43;12.20;;;;;;;14.09;88.03;96622.28;5060561;28;20102;-79
2021/09/08 00:12:52;;;;;;;16.83;13.70;;;;;;;14.12;87.78;96619.28;5080172;28;20491;-79
2021/09/08 00:15:18;;;;;;;15.37;12.10;;;;;;;14.13;87.56;96615.63;5078418;28;20055;-79
2021/09/08 00:17:43;;;;;;;16.37;12.53;;;;;;;14.15;87.37;96616.28;5076055;28;20028;-79
2021/09/08 00:20:10;;;;;;;17.33;12.60;;;;;;;14.08;87.72;96612.66;5081241;28;20414;-79
2021/09/08 00:22:37;;;;;;;17.77;13.10;;;;;;;14.03;87.85;96615.84;5082889;28;20029;-79
2021/09/08 00:25:04;;;;;;;16.03;12.23;;;;;;;13.95;88.86;96618.53;5084257;28;20036;-79
2021/09/08 00:27:30;;;;;;;15.67;11.97;;;;;;;13.93;88.91;96611.75;5084416;28;20025;-79
2021/09/08 00:29:56;;;;;;;18.10;13.00;;;;;;;13.84;89.38;96603.84;5059642;28;20059;-79
2021/09/08 00:32:22;;;;;;;19.47;12.73;;;;;;;13.77;90.23;96607.34;5082503;28;20082;-79
2021/09/08 00:34:48;;;;;;;18.43;13.70;;;;;;;13.57;91.22;96599.78;5082301;28;20036;-79
2021/09/08 00:37:15;;;;;;;18.90;13.80;;;;;;;13.72;90.60;96602.56;5065090;28;20020;-79
2021/09/08 00:39:44;;;;;;;20.50;14.17;;;;;;;13.64;90.90;96600.75;5074922;28;20059;-79
2021/09/08 00:42:14;;;;;;;16.80;14.17;;;;;;;13.64;91.06;96599.94;5061799;28;20086;-79
2021/09/08 00:44:42;;;;;;;19.90;13.70;;;;;;;13.66;91.12;96597.97;5086300;28;20078;-78
2021/09/08 00:47:15;;;;;;;16.67;13.43;;;;;;;13.66;90.79;96595.31;5057528;28;20123;-79
2021/09/08 00:49:44;;;;;;;;;;;;;;;13.63;90.81;96598.28;5085967;28;20039;-79
2021/09/08 00:52:12;;;;;;;17.13;12.90;;;;;;;13.63;91.04;96600.94;5052903;28;20389;-79
2021/09/08 00:54:38;;;;;;;16.63;13.87;;;;;;;13.60;91.39;96596.81;5078055;28;20029;-79
2021/09/08 00:57:10;;;;;;;17.77;13.93;;;;;;;13.61;91.26;96597.63;5056865;28;20028;-79
2021/09/08 00:59:40;;;;;;;;;;;;;;;13.62;91.04;96588.72;5077823;28;20032;-78
2021/09/08 01:02:06;;;;;;;20.33;13.83;;;;;;;13.57;91.87;96593.69;5057385;28;19928;-79
2021/09/08 01:04:33;;;;;;;22.77;14.17;;;;;;;13.52;92.11;96594.19;5056925;28;20040;-79
2021/09/08 01:07:07;;;;;;;17.43;13.60;;;;;;;13.52;92.04;96588.09;5085620;28;20036;-79
2021/09/08 01:09:33;;;;;;;19.00;14.67;;;;;;;13.51;92.05;96584.59;5058626;28;20045;-79
2021/09/08 01:12:00;;;;;;;18.37;14.07;;;;;;;13.47;92.35;96590.41;5075989;28;20055;-79
2021/09/08 01:14:27;;;;;;;19.67;14.30;;;;;;;13.48;92.26;96589.41;5061193;28;20062;-79
2021/09/08 01:16:56;;;;;;;16.53;13.03;;;;;;;13.49;92.25;96583.16;5054870;28;20114;-79
2021/09/08 01:19:22;;;;;;;24.70;15.23;;;;;;;13.43;92.81;96582.81;5077488;28;20032;-79
2021/09/08 01:21:48;;;;;;;18.93;15.27;;;;;;;13.41;93.06;96579.53;5076899;28;20036;-79
2021/09/08 01:24:14;;;;;;;20.77;15.87;;;;;;;13.41;93.52;96587.47;5077710;28;20123;-79
2021/09/08 01:26:44;;;;;;;19.70;15.53;;;;;;;13.41;93.44;96581.31;5086950;28;20476;-79
2021/09/08 01:29:10;;;;;;;18.83;15.60;;;;;;;13.33;94.24;96581.34;5082725;28;20440;-79
2021/09/08 01:31:36;;;;;;;21.63;15.77;;;;;;;13.25;94.68;96584.84;5088820;28;20104;-78
2021/09/08 01:34:04;;;;;;;20.43;14.73;;;;;;;13.24;94.50;96582.31;5074411;28;20483;-81
2021/09/08 01:36:36;;;;;;;19.30;14.57;;;;;;;13.17;94.96;96574.22;5074975;28;20040;-79
2021/09/08 01:39:03;;;;;;;19.92;15.82;;;;;;;13.13;96.10;96583.47;5072119;28;20036;-78
2021/09/08 01:41:28;;;;;;;20.63;16.07;;;;;;;13.05;95.92;96584.31;5079696;28;20032;-79
2021/09/08 01:43:54;;;;;;;18.53;15.23;;;;;;;13.02;96.86;96589.13;5080254;28;20032;-79
2021/09/08 01:46:22;;;;;;;20.40;16.40;;;;;;;13.02;96.81;96579.38;5080837;28;20029;-79
2021/09/08 01:48:48;;;;;;;19.23;15.93;;;;;;;12.98;96.91;96572.78;5082643;28;20021;-79
2021/09/08 01:51:14;;;;;;;20.73;16.13;;;;;;;12.98;96.94;96578.88;5076375;28;20619;-79
2021/09/08 01:53:41;;;;;;;20.03;15.73;;;;;;;12.90;97.30;96570.13;5075814;28;20041;-78
2021/09/08 01:56:07;;;;;;;21.70;16.97;;;;;;;12.86;97.46;96561.72;5055374;28;20058;-79
2021/09/08 01:58:33;;;;;;;22.93;16.63;;;;;;;12.83;97.71;96577.88;5076265;28;20061;-79
2021/09/08 02:01:01;;;;;;;20.60;16.00;;;;;;;12.82;97.97;96573.59;5078592;28;20377;-79
2021/09/08 02:03:27;;;;;;;21.23;17.37;;;;;;;12.74;98.38;96576.22;5080372;28;20051;-78
2021/09/08 02:05:53;;;;;;;22.37;17.43;;;;;;;12.73;98.45;96577.22;5078766;28;20032;-78
2021/09/08 02:08:18;;;;;;;23.50;17.60;;;;;;;12.65;98.86;96569.31;5073387;28;20037;-79
2021/09/08 02:10:44;;;;;;;19.80;16.10;;;;;;;12.64;99.19;96565.00;5061236;28;20028;-79
2021/09/08 02:13:11;;;;;;;22.70;17.30;;;;;;;12.57;99.94;96569.28;5077940;28;20086;-79
2021/09/08 02:15:37;;;;;;;25.70;17.13;;;;;;;12.62;99.36;96561.72;5055205;28;20468;-79
2021/09/08 02:18:03;;;;;;;23.20;17.90;;;;;;;12.62;99.56;96559.09;5077143;28;20038;-79
2021/09/08 02:20:29;;;;;;;23.10;18.30;;;;;;;12.61;99.99;96562.69;5072307;28;20552;-79
2021/09/08 02:22:55;;;;;;;22.57;18.50;;;;;;;12.57;100.00;96559.56;5073853;28;20537;-79
2021/09/08 02:25:21;;;;;;;22.70;17.43;;;;;;;12.47;100.00;96562.38;5077078;28;20103;-79
2021/09/08 02:27:46;;;;;;;21.47;17.43;;;;;;;12.49;100.00;96560.38;5072048;28;20493;-79
2021/09/08 02:30:12;;;;;;;23.87;17.57;;;;;;;12.45;100.00;96555.59;5078005;28;20089;-79
2021/09/08 02:32:44;;;;;;;23.03;18.23;;;;;;;12.43;100.00;96554.94;5080472;28;20028;-79
2021/09/08 02:35:10;;;;;;;25.33;20.00;;;;;;;12.42;100.00;96556.75;5069322;28;20032;-79
2021/09/08 02:37:36;;;;;;;23.27;18.33;;;;;;;12.42;100.00;96556.75;5074000;28;20500;-79
2021/09/08 02:40:02;;;;;;;23.23;18.70;;;;;;;12.42;100.00;96559.38;5057836;28;20089;-79
2021/09/08 02:42:28;;;;;;;22.20;18.83;;;;;;;12.37;100.00;96563.47;5079950;28;20077;-79
2021/09/08 02:44:53;;;;;;;21.90;18.47;;;;;;;12.31;100.00;96558.84;5074685;28;20024;-79
2021/09/08 02:47:19;;;;;;;21.93;18.13;;;;;;;12.32;100.00;96555.25;5068193;28;20031;-78
2021/09/08 02:49:45;;;;;;;23.47;19.43;;;;;;;12.33;100.00;96555.06;5073470;28;20067;-79
2021/09/08 02:52:10;;;;;;;22.50;18.27;;;;;;;12.31;100.00;96553.56;5066860;28;20073;-79
2021/09/08 02:54:36;;;;;;;25.40;20.00;;;;;;;12.30;100.00;96552.75;5075447;28;20036;-79
2021/09/08 02:57:02;;;;;;;23.63;18.37;;;;;;;12.31;100.00;96549.16;5083916;28;20028;-80
2021/09/08 02:59:28;;;;;;;22.10;18.93;;;;;;;12.27;100.00;96546.03;5069285;28;20040;-79
2021/09/08 03:01:54;;;;;;;24.77;19.87;;;;;;;12.22;100.00;96542.22;5075014;28;20036;-79
2021/09/08 03:04:19;;;;;;;26.97;20.30;;;;;;;12.19;100.00;96539.88;5057016;28;20032;-79
2021/09/08 03:06:48;;;;;;;21.00;18.77;;;;;;;12.17;100.00;96542.72;5072134;28;20036;-79
2021/09/08 03:09:14;;;;;;;23.50;19.00;;;;;;;12.11;100.00;96553.06;5069744;28;20397;-79
2021/09/08 03:11:40;;;;;;;22.23;18.80;;;;;;;12.11;100.00;96539.88;5077242;28;20025;-79
2021/09/08 03:14:06;;;;;;;23.13;17.93;;;;;;;12.09;100.00;96539.22;5078386;28;20028;-79
2021/09/08 03:16:32;;;;;;;21.97;18.53;;;;;;;12.10;100.00;96536.41;5067688;28;20063;-78
2021/09/08 03:18:57;;;;;;;25.43;19.23;;;;;;;12.11;100.00;96532.81;5071506;28;20733;-79
2021/09/08 03:21:23;;;;;;;22.30;17.87;;;;;;;12.11;100.00;96537.25;5078213;28;20036;-79
2021/09/08 03:23:49;;;;;;;23.50;18.67;;;;;;;12.08;100.00;96527.03;5080406;28;20045;-79
2021/09/08 03:26:15;;;;;;;22.37;18.37;;;;;;;12.02;100.00;96531.94;5063357;28;20025;-79
2021/09/08 03:28:40;;;;;;;23.67;19.30;;;;;;;12.06;100.00;96535.06;5077031;28;20087;-79
2021/09/08 03:31:06;;;;;;;22.97;18.30;;;;;;;11.98;100.00;96533.25;5056549;28;20141;-79
2021/09/08 03:33:32;;;;;;;23.33;18.77;;;;;;;12.01;100.00;96535.56;5063191;28;20064;-78
2021/09/08 03:35:57;;;;;;;22.30;19.23;;;;;;;11.90;100.00;96533.22;5073458;28;20025;-79
2021/09/08 03:38:23;;;;;;;24.33;19.63;;;;;;;11.94;100.00;96529.28;5074686;28;20037;-79
2021/09/08 03:40:48;;;;;;;24.83;20.90;;;;;;;11.95;100.00;96527.47;5063377;28;20529;-79
2021/09/08 03:43:14;;;;;;;23.03;19.60;;;;;;;11.93;100.00;96524.16;5074955;28;20031;-79
2021/09/08 03:45:40;;;;;;;25.87;20.90;;;;;;;11.86;100.00;96528.44;5063734;28;20051;-79
2021/09/08 03:48:06;;;;;;;27.67;21.70;;;;;;;11.82;100.00;96525.25;5077126;28;20031;-79
2021/09/08 03:50:31;;;;;;;26.40;20.63;;;;;;;11.76;100.00;96526.72;5088168;28;20020;-79
2021/09/08 03:52:57;;;;;;;27.77;19.70;;;;;;;11.79;100.00;96522.94;5079760;28;20111;-78
2021/09/08 03:55:22;;;;;;;25.00;19.13;;;;;;;11.77;100.00;96517.03;5083759;28;20020;-79
2021/09/08 03:57:48;;;;;;;25.27;21.00;;;;;;;11.78;100.00;96523.94;5058709;28;20260;-79
2021/09/08 04:00:14;;;;;;;27.87;22.13;;;;;;;11.75;100.00;96513.72;5066466;28;20102;-79
2021/09/08 04:02:40;;;;;;;27.60;20.63;;;;;;;11.80;100.00;96519.31;5076473;28;20029;-79
2021/09/08 04:05:06;;;;;;;26.03;21.10;;;;;;;11.76;100.00;96515.34;5080263;28;20036;-79
2021/09/08 04:07:32;;;;;;;22.83;18.50;;;;;;;11.86;100.00;96512.63;5069979;28;20074;-78
2021/09/08 04:09:58;;;;;;;26.23;20.10;;;;;;;11.75;100.00;96518.97;5072576;28;20024;-79
2021/09/08 04:12:24;;;;;;;26.07;21.00;;;;;;;11.72;100.00;96516.66;5071738;28;20084;-79
2021/09/08 04:14:49;;;;;;;22.93;19.13;;;;;;;11.74;100.00;96509.44;5071184;28;20942;-79
2021/09/08 04:17:16;;;;;;;24.17;20.00;;;;;;;11.67;100.00;96505.75;5076165;28;20417;-78
2021/09/08 04:19:42;;;;;;;24.00;19.37;;;;;;;11.60;100.00;96512.66;5071267;28;20040;-79
2021/09/08 04:22:07;;;;;;;24.53;20.20;;;;;;;11.55;100.00;96506.06;5070709;28;20079;-79
2021/09/08 04:24:33;;;;;;;24.87;21.77;;;;;;;11.55;100.00;96506.06;5082338;28;20024;-79
2021/09/08 04:26:59;;;;;;;27.30;20.63;;;;;;;11.72;100.00;96500.84;5071772;28;20029;-79
2021/09/08 04:29:24;;;;;;;26.03;19.77;;;;;;;11.66;100.00;96506.75;5075944;28;20032;-79
2021/09/08 04:31:50;;;;;;;24.37;19.73;;;;;;;11.61;100.00;96506.44;5071566;28;20029;-78
2021/09/08 04:34:16;;;;;;;24.07;19.87;;;;;;;11.64;100.00;96500.84;5062701;28;20108;-78
2021/09/08 04:36:41;;;;;;;21.97;18.77;;;;;;;11.65;100.00;96499.84;5069370;28;20475;-78
2021/09/08 04:39:07;;;;;;;27.50;20.33;;;;;;;11.64;100.00;96500.84;5058512;28;20028;-79
2021/09/08 04:41:33;;;;;;;26.33;19.57;;;;;;;11.65;100.00;96495.41;5056963;28;20446;-79
2021/09/08 04:43:58;;;;;;;28.23;20.73;;;;;;;11.67;100.00;96503.13;5073779;28;20128;-78
2021/09/08 04:46:24;;;;;;;24.30;19.30;;;;;;;11.70;100.00;96500.19;5066458;28;20086;-78
2021/09/08 04:48:50;;;;;;;26.03;19.43;;;;;;;11.67;100.00;96500.50;5091068;28;20020;-78
2021/09/08 04:51:15;;;;;;;23.37;19.30;;;;;;;11.70;100.00;96500.19;5084177;28;20033;-79
2021/09/08 04:53:41;;;;;;;25.87;19.13;;;;;;;11.72;100.00;96500.84;5065734;28;20033;-79
2021/09/08 04:56:07;;;;;;;23.47;20.00;;;;;;;11.75;100.00;96501.34;5076945;28;20028;-79
2021/09/08 04:58:32;;;;;;;22.07;18.00;;;;;;;11.76;100.00;96497.72;5081443;28;20458;-79
2021/09/08 05:00:58;;;;;;;23.30;18.40;;;;;;;11.72;100.00;96501.69;5073343;28;20042;-78
2021/09/08 05:03:26;;;;;;;21.20;18.07;;;;;;;11.73;100.00;96494.59;5058999;28;20120;-78
2021/09/08 05:05:51;;;;;;;23.03;18.50;;;;;;;11.78;100.00;96484.41;5077001;28;20036;-79
2021/09/08 05:08:17;;;;;;;21.87;17.90;;;;;;;11.88;100.00;96492.22;5057062;28;20025;-79
2021/09/08 05:10:43;;;;;;;24.00;18.87;;;;;;;11.85;100.00;96490.72;5075367;28;20397;-79
2021/09/08 05:13:08;;;;;;;20.73;16.37;;;;;;;11.88;100.00;96490.41;5059320;28;20020;-79
2021/09/08 05:15:34;;;;;;;23.17;18.17;;;;;;;11.97;100.00;96486.81;5056426;28;20036;-79
2021/09/08 05:18:01;;;;;;;23.83;18.27;;;;;;;12.14;98.64;96484.19;5067902;28;20604;-78
2021/09/08 05:20:27;;;;;;;24.30;19.77;;;;;;;12.25;98.12;96489.97;5076618;28;20039;-79
2021/09/08 05:22:53;;;;;;;22.43;17.87;;;;;;;12.53;96.09;96486.19;5076403;28;20174;-79
2021/09/08 05:25:18;;;;;;;21.47;17.40;;;;;;;12.62;95.47;96479.94;5056258;28;20541;-79
2021/09/08 05:27:45;;;;;;;21.17;16.57;;;;;;;12.95;93.26;96476.25;5072855;28;20351;-79
2021/09/08 05:30:11;;;;;;;22.13;16.97;;;;;;;13.12;91.35;96470.94;5075397;28;20508;-79
2021/09/08 05:32:37;;;;;;;21.40;16.73;;;;;;;13.21;91.48;96477.81;5062542;28;20021;-79
2021/09/08 05:35:03;;;;;;;20.40;16.33;;;;;;;13.50;89.23;96479.09;5073118;28;20037;-78
2021/09/08 05:37:28;;;;;;;20.97;16.80;;;;;;;13.71;88.71;96473.22;5081377;28;20042;-78
2021/09/08 05:39:55;;;;;;;21.13;15.57;;;;;;;13.72;87.55;96475.69;5076445;28;20043;-78
2021/09/08 05:42:21;;;;;;;20.80;15.40;;;;;;;13.84;86.97;96474.31;5053834;28;20017;-78
2021/09/08 05:44:47;;;;;;;19.43;15.00;;;;;;;14.05;85.33;96481.63;5055987;28;20024;-78
2021/09/08 05:47:13;;;;;;;18.77;15.20;;;;;;;14.22;83.92;96474.41;5073265;28;20020;-78
2021/09/08 05:49:38;;;;;;;18.17;14.80;;;;;;;14.52;81.14;96480.69;5075868;28;20381;-78
2021/09/08 05:52:04;;;;;;;19.43;15.40;;;;;;;14.58;82.26;96484.41;5069733;28;20017;-78
2021/09/08 05:54:30;;;;;;;22.07;15.13;;;;;;;14.66;80.58;96487.00;5078139;28;20519;-78
2021/09/08 05:56:58;;;;;;;18.10;13.83;;;;;;;14.78;80.88;96482.09;5083994;28;20106;-78
2021/09/08 05:59:24;;;;;;;18.13;13.90;;;;;;;15.08;78.52;96482.97;5071490;28;20393;-78
2021/09/08 06:01:49;;;;;;;17.67;14.23;;;;;;;15.13;77.81;96479.78;5060624;28;20088;-78
2021/09/08 06:04:16;;;;;;;16.63;12.77;;;;;;;15.38;76.75;96490.94;5072910;28;20028;-78
2021/09/08 06:06:42;;;;;;;18.17;13.30;;;;;;;15.71;75.31;96488.75;5058173;28;20020;-78
2021/09/08 06:09:08;;;;;;;18.30;13.90;;;;;;;15.44;75.73;96490.22;5072458;28;20040;-78
2021/09/08 06:11:35;;;;;;;17.53;12.87;;;;;;;15.79;74.34;96494.78;5068259;28;20027;-77
2021/09/08 06:14:01;;;;;;;17.10;12.80;;;;;;;15.85;72.95;96490.56;5070873;28;20033;-78
2021/09/08 06:16:27;;;;;;;17.00;13.23;;;;;;;16.33;71.08;96492.69;5073355;28;20023;-78
2021/09/08 06:18:58;;;;;;;19.92;14.13;;;;;;;15.98;72.76;96489.88;5070623;28;20094;-77
2021/09/08 06:21:23;;;;;;;17.20;12.50;;;;;;;16.04;72.62;96489.16;5084367;28;20484;-78
2021/09/08 06:23:49;;;;;;;19.77;12.40;;;;;;;16.43;70.45;96488.75;5074248;28;20079;-78
2021/09/08 06:26:15;;;;;;;19.67;16.08;;;;;;;17.05;68.85;96473.16;5072358;28;20032;-78
2021/09/08 06:28:40;;;;;;;15.57;12.18;;;;;;;16.43;69.92;96479.94;5054285;28;20020;-78
2021/09/08 06:31:07;;;;;;;17.63;13.65;;;;;;;17.12;68.51;96472.16;5055429;28;20510;-78
2021/09/08 06:33:33;;;;;;;22.40;16.60;;;;;;;17.25;67.90;96474.09;5077334;28;20047;-77
2021/09/08 06:35:58;;;;;;;14.65;11.80;;;;;;;17.74;65.82;96469.63;5075603;28;20032;-78
2021/09/08 06:38:24;;;;;;;14.90;12.02;;;;;;;17.21;66.85;96467.53;5079491;28;20082;-78
2021/09/08 06:40:51;;;;;;;15.68;13.02;;;;;;;18.28;65.00;96471.50;5054919;28;20038;-78
2021/09/08 06:43:17;;;;;;;15.30;12.18;;;;;;;18.71;63.91;96471.94;5080467;28;20031;-78
2021/09/08 06:45:43;;;;;;;15.90;12.90;;;;;;;17.80;66.33;96476.84;5071985;28;20049;-78
2021/09/08 06:48:15;;;;;;;15.25;12.38;;;;;;;17.98;66.97;96471.81;5065595;28;20497;-78
2021/09/08 06:50:41;;;;;;;16.10;13.02;;;;;;;17.53;70.40;96463.41;5073474;28;20351;-78
2021/09/08 06:53:06;;;;;;;17.17;13.02;;;;;;;17.22;71.45;96471.00;5066872;28;20016;-78
2021/09/08 06:55:32;;;;;;;16.02;12.60;;;;;;;18.49;67.20;96463.31;5090339;28;20032;-78
2021/09/08 06:57:59;;;;;;;16.00;13.43;;;;;;;17.75;70.69;96460.66;5076859;28;20031;-78
2021/09/08 07:00:25;;;;;;;18.38;12.68;;;;;;;18.01;69.63;96452.78;5051826;28;20024;-78
2021/09/08 07:02:51;;;;;;;16.25;12.68;;;;;;;17.73;72.45;96454.69;5055585;28;20032;-78
2021/09/08 07:05:17;;;;;;;16.45;13.25;;;;;;;18.37;70.09;96449.78;5070814;28;20037;-78
2021/09/08 07:07:43;;;;;;;18.80;13.75;;;;;;;18.01;72.63;96444.81;5080553;28;20524;-77
2021/09/08 07:10:10;;;;;;;18.35;13.60;;;;;;;18.33;71.89;96442.41;5057827;28;20039;-79
2021/09/08 07:12:35;;;;;;;16.35;12.30;;;;;;;18.93;70.00;96427.28;5081518;28;20020;-78
2021/09/08 07:15:01;;;;;;;16.10;12.35;;;;;;;19.47;67.84;96435.97;5070669;28;20093;-78
2021/09/08 07:17:27;;;;;;;14.82;12.18;;;;;;;19.58;67.96;96429.16;5050065;28;20029;-78
2021/09/08 07:19:52;;;;;;;17.40;13.77;;;;;;;19.38;69.08;96424.72;5079618;28;20547;-78
2021/09/08 07:22:18;;;;;;;17.27;13.23;;;;;;;19.35;70.21;96429.66;5052693;28;20257;-78
2021/09/08 07:24:44;;;;;;;16.73;12.68;;;;;;;20.11;66.60;96419.09;5062633;28;20520;-78
2021/09/08 07:27:10;;;;;;;17.40;12.50;;;;;;;20.30;67.00;96414.66;5050882;28;20067;-78
2021/09/08 07:29:37;;;;;;;15.35;11.70;;;;;;;21.00;64.46;96419.88;5061892;28;20041;-78
2021/09/08 07:32:05;;;;;;;16.55;12.68;;;;;;;20.21;66.44;96427.44;5075132;28;20034;-78
2021/09/08 07:34:31;;;;;;;15.55;12.30;;;;;;;19.91;67.35;96419.19;5055667;28;20055;-78
2021/09/08 07:36:58;;;;;;;15.30;11.55;;;;;;;20.79;65.89;96415.75;5070017;28;20035;-78
2021/09/08 07:39:24;;;;;;;14.75;12.10;;;;;;;21.15;64.44;96406.16;5055257;28;20040;-78
2021/09/08 07:41:51;;;;;;;14.93;11.13;;;;;;;21.16;62.65;96410.47;5070525;28;20111;-77
2021/09/08 07:44:22;;;;;;;14.10;10.63;;;;;;;22.11;60.59;96409.97;5072249;28;20035;-78
2021/09/08 07:46:49;;;;;;;16.00;10.18;;;;;;;22.39;60.49;96398.66;5081604;28;20043;-78
2021/09/08 07:49:18;;;;;;;15.85;10.65;;;;;;;21.12;63.39;96409.25;5059506;28;20027;-78
2021/09/08 07:51:44;;;;;;;12.68;9.65;;;;;;;21.21;62.61;96410.63;5080987;28;20584;-78
2021/09/08 07:54:10;;;;;;;13.43;9.63;;;;;;;21.76;62.88;96410.63;5074112;28;20020;-78
2021/09/08 07:56:35;;;;;;;15.68;10.82;;;;;;;21.94;62.05;96412.47;5075134;28;20033;-78
2021/09/08 07:59:09;;;;;;;14.05;9.82;;;;;;;22.43;58.84;96409.72;5081555;28;20569;-78
2021/09/08 08:01:39;;;;;;;13.05;9.45;;;;;;;22.05;60.08;96413.53;5057047;28;20037;-78
2021/09/08 08:04:10;;;;;;;11.68;9.65;;;;;;;21.95;59.75;96414.09;5059509;28;20033;-78
2021/09/08 08:06:37;;;;;;;11.80;8.68;;;;;;;22.57;58.71;96411.16;5052608;28;20032;-78
2021/09/08 08:09:03;;;;;;;14.48;8.75;;;;;;;24.03;53.97;96402.28;5066158;28;20025;-78
2021/09/08 08:11:29;;;;;;;13.45;9.23;;;;;;;24.44;53.32;96403.84;5069941;28;20017;-78
2021/09/08 08:13:55;;;;;;;12.80;9.10;;;;;;;23.22;56.86;96403.03;5062394;28;20023;-78
2021/09/08 08:16:22;;;;;;;13.23;8.70;;;;;;;24.83;52.89;96398.56;5053997;28;20507;-78
2021/09/08 08:18:48;;;;;;;13.35;9.30;;;;;;;25.56;49.95;96389.41;5057925;28;20017;-78
2021/09/08 08:21:14;;;;;;;13.43;10.10;;;;;;;25.29;50.20;96393.91;5070314;28;20036;-78
2021/09/08 08:23:41;;;;;;;10.82;8.90;;;;;;;24.82;51.49;96394.28;5054254;28;20104;-78
2021/09/08 08:26:06;;;;;;;12.95;9.15;;;;;;;24.54;53.02;96406.72;5054905;28;20093;-78
2021/09/08 08:28:32;;;;;;;13.30;8.43;;;;;;;24.63;51.97;96407.94;5070515;28;20033;-78
2021/09/08 08:30:59;;;;;;;13.15;8.65;;;;;;;25.78;49.16;96391.25;5052690;28;20063;-78
2021/09/08 08:33:26;;;;;;;14.30;8.65;;;;;;;25.56;49.78;96391.28;5050661;28;20016;-78
2021/09/08 08:35:51;;;;;;;12.75;9.48;;;;;;;26.03;48.37;96390.78;5061760;28;20063;-78
2021/09/08 08:38:17;;;;;;;12.77;8.90;;;;;;;24.46;51.20;96402.56;5086829;28;20039;-78
2021/09/08 08:40:44;;;;;;;10.70;8.68;;;;;;;24.36;51.21;96396.97;5067244;28;20489;-78
2021/09/08 08:43:11;;;;;;;10.07;8.57;;;;;;;24.60;51.32;96392.28;5075237;28;20020;-79
2021/09/08 08:45:40;;;;;;;10.48;9.10;;;;;;;25.27;49.26;96390.63;5057312;28;20032;-78
2021/09/08 08:48:09;;;;;;;12.07;8.95;;;;;;;25.10;50.23;96391.44;5081933;28;20027;-78
2021/09/08 08:50:35;;;;;;;11.40;8.57;;;;;;;24.44;51.31;96401.97;5065087;28;20066;-78
2021/09/08 08:53:02;;;;;;;14.70;9.18;;;;;;;25.23;48.75;96390.31;5060151;28;20489;-78
2021/09/08 08:55:28;;;;;;;13.35;8.55;;;;;;;24.86;50.01;96395.41;5071204;28;20040;-78
2021/09/08 08:57:54;;;;;;;13.48;8.85;;;;;;;25.67;47.69;96390.34;5074594;28;20024;-78
2021/09/08 09:00:22;;;;;;;11.68;8.55;;;;;;;24.99;49.56;96389.69;5060660;28;20099;-79
2021/09/08 09:02:50;;;;;;;13.38;9.82;;;;;;;25.59;47.66;96388.09;5078001;28;20027;-78
2021/09/08 09:05:31;;;;;;;11.57;8.70;;;;;;;24.78;49.68;96387.72;5087148;28;20059;-78
2021/09/08 09:07:57;;;;;;;11.20;9.20;;;;;;;25.43;48.69;96387.09;5055923;28;20056;-78
2021/09/08 09:10:25;;;;;;;12.13;8.90;;;;;;;26.70;45.25;96376.06;5062745;28;20123;-79
2021/09/08 09:12:51;;;;;;;10.55;7.65;;;;;;;25.60;47.69;96385.13;5081562;28;20753;-79
2021/09/08 09:15:20;;;;;;;12.27;8.75;;;;;;;23.99;50.57;96391.22;5041673;28;20038;-78
2021/09/08 09:17:47;;;;;;;15.18;8.95;;;;;;;25.77;48.17;96374.28;5069236;28;20033;-78
2021/09/08 09:20:22;;;;;;;12.18;8.93;;;;;;;24.50;49.70;96381.38;5064672;28;20020;-78
2021/09/08 09:22:53;;;;;;;10.63;8.80;;;;;;;26.67;45.08;96365.78;5049629;28;20044;-77
2021/09/08 09:25:25;;;;;;;12.98;9.38;;;;;;;25.72;46.98;96373.41;5066749;28;20586;-78
2021/09/08 09:27:59;;;;;;;10.45;7.85;;;;;;;26.85;45.10;96362.66;5070309;28;20075;-78
2021/09/08 09:30:27;;;;;;;11.05;9.15;;;;;;;27.06;43.83;96357.38;5076556;28;20035;-78
2021/09/08 09:32:54;;;;;;;10.75;8.20;;;;;;;26.47;43.58;96356.44;5081398;28;20019;-78
2021/09/08 09:35:23;;;;;;;11.27;9.23;;;;;;;27.63;42.56;96362.00;5049791;28;20027;-78
2021/09/08 09:37:56;;;;;;;13.38;9.32;;;;;;;27.55;42.86;96357.13;5077677;28;20088;-78
2021/09/08 09:40:26;;;;;;;12.43;9.23;;;;;;;26.17;44.61;96358.84;5071191;28;20037;-78
2021/09/08 09:42:52;;;;;;;15.00;8.10;;;;;;;26.92;43.40;96351.63;5057542;28;20016;-78
2021/09/08 09:45:19;;;;;;;13.68;9.75;;;;;;;26.94;43.77;96350.31;5083493;28;20145;-78
2021/09/08 09:47:46;;;;;;;13.10;8.93;;;;;;;26.56;44.50;96351.41;5081325;28;20020;-78
2021/09/08 09:50:18;;;;;;;10.95;8.75;;;;;;;25.79;45.54;96352.50;5089805;28;20043;-80
2021/09/08 09:52:49;;;;;;;12.55;8.20;;;;;;;26.13;45.56;96349.66;5069152;28;20035;-80
2021/09/08 09:55:16;;;;;;;12.55;8.60;;;;;;;25.60;45.20;96352.81;5080458;28;20036;-80
2021/09/08 09:57:43;;;;;;;13.20;8.20;;;;;;;26.07;44.62;96341.50;5073114;28;20028;-80
2021/09/08 10:00:10;;;;;;;10.43;8.25;;;;;;;27.74;41.51;96340.19;5084606;28;20032;-80
2021/09/08 10:02:43;;;;;;;12.52;9.20;;;;;;;25.28;44.55;96343.81;5080161;28;20113;-80
2021/09/08 10:05:10;;;;;;;14.57;8.38;;;;;;;24.64;47.36;96344.22;5068273;28;20411;-81
2021/09/08 10:07:39;;;;;;;11.50;8.75;;;;;;;25.12;46.06;96332.84;5060437;28;20103;-80
2021/09/08 10:10:12;;;;;;;12.35;8.85;;;;;;;24.89;45.70;96330.34;5065887;28;20034;-78
2021/09/08 10:12:44;;;;;;;12.52;8.40;;;;;;;26.05;44.83;96324.75;5063209;28;20032;-79
2021/09/08 10:15:14;;;;;;;12.18;7.82;;;;;;;25.98;44.09;96321.47;5082313;28;20021;-78
2021/09/08 10:17:42;;;;;;;13.10;8.88;;;;;;;25.00;46.70;96318.66;5061569;28;20037;-79
2021/09/08 10:20:09;;;;;;;10.52;7.90;;;;;;;26.49;43.04;96319.25;5073642;28;20024;-79
2021/09/08 10:22:39;;;;;;;11.38;8.13;;;;;;;26.39;43.84;96316.44;5076701;28;20024;-80
2021/09/08 10:25:13;;;;;;;11.15;8.82;;;;;;;24.81;46.33;96322.69;5078004;28;20037;-80
2021/09/08 10:27:39;;;;;;;10.70;8.05;;;;;;;26.56;44.80;96309.06;5096882;28;20043;-79
2021/09/08 10:30:07;;;;;;;11.23;8.70;;;;;;;26.00;43.28;96311.25;5073612;28;20025;-79
2021/09/08 10:32:33;;;;;;;11.40;8.38;;;;;;;24.77;46.11;96308.91;5066421;28;20051;-79
2021/09/08 10:34:58;;;;;;;12.55;8.77;;;;;;;26.46;43.44;96297.31;5067371;28;20034;-80
2021/09/08 10:37:24;;;;;;;10.75;7.80;;;;;;;26.36;43.08;96302.63;5090656;28;20040;-80
2021/09/08 10:39:53;;;;;;;12.88;8.60;;;;;;;25.61;44.69;96299.75;5079316;28;20028;-79
2021/09/08 10:42:53;;;;;;;12.70;8.60;;;;;;;26.60;42.52;96285.06;5059059;28;20036;-77
2021/09/08 10:45:24;;;;;;;10.50;7.82;;;;;;;27.21;41.16;96290.81;5077012;28;20036;-78
2021/09/08 10:47:51;;;;;;;11.30;8.10;;;;;;;25.93;42.88;96296.38;5076246;28;20039;-78
2021/09/08 10:50:41;;;;;;;15.10;7.70;;;;;;;25.57;44.23;96290.56;5088741;28;20020;-79
2021/09/08 10:53:19;;;;;;;11.30;8.45;;;;;;;25.06;44.22;96288.06;5059256;28;20032;-79
2021/09/08 10:55:46;;;;;;;10.20;6.95;;;;;;;26.53;43.11;96279.91;5066987;28;20439;-80
2021/09/08 10:58:12;;;;;;;10.05;7.18;;;;;;;26.63;42.35;96278.34;5075763;28;20031;-80
2021/09/08 11:00:41;;;;;;;11.90;8.18;;;;;;;27.49;39.87;96284.16;5060891;28;20040;-81
2021/09/08 11:03:26;;;;;;;11.77;8.23;;;;;;;26.61;41.98;96267.00;5050100;28;20021;-80
2021/09/08 11:05:58;;;;;;;12.70;7.93;;;;;;;26.25;43.39;96272.09;5075481;28;20036;-81
2021/09/08 11:08:28;;;;;;;11.83;7.03;;;;;;;27.22;40.82;96265.44;5064821;28;20040;-80
2021/09/08 11:11:18;;;;;;;10.98;7.55;;;;;;;27.17;39.97;96261.94;5055309;28;20085;-79
2021/09/08 11:13:45;;;;;;;11.43;8.40;;;;;;;25.67;43.19;96263.75;5054011;28;20055;-79
2021/09/08 11:16:17;;;;;;;15.15;8.60;;;;;;;26.47;42.78;96263.91;5052384;28;20516;-79